createdAt,value
2019-02-06T00:01:07.293Z,82.90
2019-02-06T00:03:49.784Z,82.40
2019-02-06T00:06:27.406Z,82.10
2019-02-06T00:09:09.270Z,82.10
2019-02-06T00:11:44.592Z,82.00
2019-02-06T00:14:17.684Z,81.90
2019-02-06T00:16:58.310Z,81.80
2019-02-06T00:19:33.137Z,81.80
2019-02-06T00:22:08.920Z,81.50
2019-02-06T00:24:50.994Z,81.30
2019-02-06T00:27:34.939Z,81.40
2019-02-06T00:30:10.839Z,81.30
2019-02-06T00:32:54.699Z,81.20
2019-02-06T00:35:28.254Z,81.20
2019-02-06T00:38:05.957Z,81.30
2019-02-06T00:40:38.839Z,81.50
2019-02-06T00:43:17.528Z,81.60
2019-02-06T00:45:54.653Z,81.60
2019-02-06T00:48:40.832Z,82.00
2019-02-06T00:51:04.586Z,82.30
2019-02-06T00:53:39.268Z,82.90
2019-02-06T00:56:37.613Z,83.50
2019-02-06T00:59:10.993Z,84.20
2019-02-06T01:01:49.685Z,84.60
2019-02-06T01:04:30.586Z,85.60
2019-02-06T01:07:11.874Z,86.10
2019-02-06T01:09:48.874Z,86.60
2019-02-06T01:12:26.860Z,86.90
2019-02-06T01:15:01.177Z,87.20
2019-02-06T01:17:39.883Z,87.50
2019-02-06T01:20:15.043Z,87.60
2019-02-06T01:23:05.452Z,88.10
2019-02-06T01:25:38.223Z,88.30
2019-02-06T01:28:24.492Z,88.80
2019-02-06T01:31:00.122Z,89.50
2019-02-06T01:33:36.615Z,89.00
2019-02-06T01:36:19.207Z,89.50
2019-02-06T01:39:18.640Z,89.90
2019-02-06T01:41:56.676Z,90.40
2019-02-06T01:44:39.352Z,89.60
2019-02-06T01:47:13.201Z,89.50
2019-02-06T01:49:45.006Z,89.30
2019-02-06T01:52:22.216Z,89.30
2019-02-06T01:54:55.792Z,89.40
2019-02-06T01:57:43.217Z,89.50
2019-02-06T02:00:19.980Z,89.70
2019-02-06T02:02:56.402Z,89.90
2019-02-06T02:05:30.246Z,90.00
2019-02-06T02:08:07.167Z,90.10
2019-02-06T02:10:43.060Z,90.30
2019-02-06T02:13:17.868Z,90.30
2019-02-06T02:15:56.334Z,90.30
2019-02-06T02:18:29.606Z,90.50
2019-02-06T02:21:04.260Z,90.50
2019-02-06T02:23:44.930Z,90.60
2019-02-06T02:26:33.357Z,90.60
2019-02-06T02:29:04.488Z,90.60
2019-02-06T02:34:19.104Z,90.70
2019-02-06T02:36:51.245Z,90.80
2019-02-06T02:39:41.595Z,91.10
2019-02-06T02:42:31.706Z,90.80
2019-02-06T02:45:14.853Z,90.80
2019-02-06T02:47:52.060Z,91.00
2019-02-06T02:50:37.439Z,91.00
2019-02-06T02:53:09.273Z,90.90
2019-02-06T02:55:55.083Z,90.90
2019-02-06T02:58:30.476Z,90.90
2019-02-06T03:01:28.684Z,90.90
2019-02-06T03:04:23.415Z,90.90
2019-02-06T03:07:01.894Z,90.80
2019-02-06T03:09:37.876Z,91.10
2019-02-06T03:12:37.576Z,90.90
2019-02-06T03:15:18.576Z,91.00
2019-02-06T03:18:02.661Z,91.00
2019-02-06T03:20:44.592Z,91.00
2019-02-06T03:23:24.210Z,91.00
2019-02-06T03:26:19.455Z,91.00
2019-02-06T03:28:47.753Z,91.00
2019-02-06T03:31:26.036Z,91.00
2019-02-06T03:34:23.969Z,91.00
2019-02-06T03:36:59.865Z,91.00
2019-02-06T03:39:35.338Z,91.00
2019-02-06T03:42:18.200Z,91.00
2019-02-06T03:44:58.724Z,91.10
2019-02-06T03:47:52.336Z,91.10
2019-02-06T03:50:50.584Z,91.20
2019-02-06T03:53:27.120Z,91.20
2019-02-06T03:55:58.404Z,91.10
2019-02-06T03:58:45.617Z,91.10
2019-02-06T04:01:33.734Z,91.10
2019-02-06T04:04:26.604Z,91.20
2019-02-06T04:07:25.793Z,91.20
2019-02-06T04:10:16.793Z,91.30
2019-02-06T04:12:50.533Z,91.30
2019-02-06T04:15:39.950Z,91.40
2019-02-06T04:18:38.957Z,91.40
2019-02-06T04:21:22.898Z,91.40
2019-02-06T04:24:30.067Z,91.40
2019-02-06T04:27:11.304Z,91.40
2019-02-06T04:29:44.048Z,91.40
2019-02-06T04:32:28.866Z,91.40
2019-02-06T04:35:46.343Z,91.40
2019-02-06T04:41:47.966Z,91.50
2019-02-06T04:44:34.672Z,91.50
2019-02-06T04:47:14.339Z,91.50
2019-02-06T04:50:07.480Z,91.40
2019-02-06T04:52:40.365Z,91.40
2019-02-06T04:55:31.961Z,91.30
2019-02-06T04:58:06.787Z,91.30
2019-02-06T05:00:43.061Z,91.10
2019-02-06T05:03:21.106Z,90.90
2019-02-06T05:06:03.496Z,90.90
2019-02-06T05:08:43.027Z,90.70
2019-02-06T05:11:22.183Z,90.70
2019-02-06T05:14:09.566Z,90.70
2019-02-06T05:16:51.155Z,90.70
2019-02-06T05:19:49.200Z,91.00
2019-02-06T05:22:35.879Z,90.60
2019-02-06T05:25:21.043Z,90.60
2019-02-06T05:28:07.438Z,90.60
2019-02-06T05:31:06.018Z,90.60
2019-02-06T05:34:03.562Z,90.70
2019-02-06T05:36:55.497Z,90.70
2019-02-06T05:39:43.231Z,90.70
2019-02-06T05:42:26.069Z,90.60
2019-02-06T05:45:07.356Z,90.40
2019-02-06T05:47:48.221Z,90.40
2019-02-06T05:50:27.702Z,90.20
2019-02-06T05:52:59.248Z,90.20
2019-02-06T05:55:29.560Z,90.10
2019-02-06T05:58:15.564Z,90.00
2019-02-06T06:00:56.422Z,90.00
2019-02-06T06:03:46.063Z,90.00
2019-02-06T06:06:25.783Z,89.50
2019-02-06T06:09:10.167Z,89.20
2019-02-06T06:11:55.126Z,88.90
2019-02-06T06:15:06.572Z,88.60
2019-02-06T06:17:14.941Z,88.20
2019-02-06T06:20:16.059Z,88.00
2019-02-06T06:22:59.650Z,87.90
2019-02-06T06:25:37.900Z,87.70
2019-02-06T06:28:11.511Z,87.40
2019-02-06T06:30:53.214Z,87.20
2019-02-06T06:33:56.278Z,87.00
2019-02-06T06:36:47.765Z,86.90
2019-02-06T06:39:18.046Z,86.70
2019-02-06T06:41:59.017Z,86.70
2019-02-06T06:44:34.925Z,86.50
2019-02-06T06:47:14.316Z,86.30
2019-02-06T06:49:50.889Z,86.40
2019-02-06T06:53:02.038Z,86.10
2019-02-06T06:55:40.040Z,85.90
2019-02-06T06:58:16.467Z,85.80
2019-02-06T07:01:19.887Z,85.90
2019-02-06T07:03:55.350Z,86.10
2019-02-06T07:06:30.556Z,86.10
2019-02-06T07:09:05.465Z,86.50
2019-02-06T07:11:39.812Z,86.70
2019-02-06T07:14:19.336Z,86.70
2019-02-06T07:16:51.172Z,86.80
2019-02-06T07:19:29.323Z,87.00
2019-02-06T07:22:05.180Z,87.20
2019-02-06T07:24:40.585Z,87.10
2019-02-06T07:27:24.460Z,87.20
2019-02-06T07:30:04.869Z,87.00
2019-02-06T07:32:36.394Z,86.90
2019-02-06T07:35:16.043Z,86.60
2019-02-06T07:37:49.006Z,85.90
2019-02-06T07:40:23.495Z,85.90
2019-02-06T07:42:54.296Z,84.70
2019-02-06T07:45:24.361Z,83.60
2019-02-06T07:47:54.109Z,81.40
2019-02-06T07:50:30.773Z,80.60
2019-02-06T07:53:15.740Z,80.40
2019-02-06T07:56:04.562Z,79.50
2019-02-06T07:59:11.308Z,76.40
2019-02-06T08:01:51.543Z,71.90
2019-02-06T08:04:28.827Z,68.20
2019-02-06T08:07:04.079Z,67.80
2019-02-06T08:09:37.612Z,68.40
2019-02-06T08:12:08.818Z,69.40
2019-02-06T08:14:43.831Z,70.80
2019-02-06T08:17:14.492Z,72.50
2019-02-06T08:19:44.484Z,73.40
2019-02-06T08:22:16.393Z,74.00
2019-02-06T08:24:50.729Z,74.40
2019-02-06T08:27:22.676Z,75.10
2019-02-06T08:30:02.334Z,75.60
2019-02-06T08:32:51.320Z,76.00
2019-02-06T08:35:22.610Z,76.10
2019-02-06T08:37:59.340Z,76.10
2019-02-06T08:40:31.454Z,76.10
2019-02-06T08:43:02.448Z,76.30
2019-02-06T08:45:37.187Z,76.50
2019-02-06T08:48:18.426Z,76.40
2019-02-06T08:51:32.304Z,76.30
2019-02-06T08:54:55.005Z,75.80
2019-02-06T08:57:28.013Z,75.30
2019-02-06T08:59:58.999Z,75.50
2019-02-06T09:02:41.428Z,74.80
2019-02-06T09:05:12.227Z,74.60
2019-02-06T09:12:34.176Z,74.30
2019-02-06T09:19:53.406Z,72.90
2019-02-06T09:27:17.207Z,72.50
2019-02-06T09:37:48.225Z,71.80
2019-02-06T09:45:05.244Z,71.90
2019-02-06T09:48:45.627Z,72.30
2019-02-06T09:52:16.331Z,72.50
2019-02-06T09:55:56.049Z,72.40
2019-02-06T09:58:49.169Z,72.10
2019-02-06T10:01:54.772Z,71.50
2019-02-06T10:04:58.682Z,70.90
2019-02-06T10:08:42.046Z,70.60
2019-02-06T10:11:48.214Z,69.90
2019-02-06T10:14:47.860Z,68.80
2019-02-06T10:18:14.233Z,68.40
2019-02-06T10:21:31.464Z,67.50
2019-02-06T10:24:33.248Z,66.60
2019-02-06T10:34:51.209Z,65.20
2019-02-06T10:38:12.654Z,64.60
2019-02-06T10:41:57.281Z,63.80
2019-02-06T10:45:02.737Z,62.40
2019-02-06T10:48:14.713Z,62.10
2019-02-06T10:51:49.251Z,60.90
2019-02-06T10:55:14.138Z,58.80
2019-02-06T10:58:41.760Z,57.30
2019-02-06T11:01:32.597Z,55.00
2019-02-06T11:05:03.744Z,53.00
2019-02-06T11:07:46.477Z,51.40
2019-02-06T11:10:46.386Z,50.20
2019-02-06T11:13:54.032Z,48.30
2019-02-06T11:16:47.723Z,47.40
2019-02-06T11:19:56.953Z,47.10
2019-02-06T11:22:47.797Z,48.10
2019-02-06T11:25:44.750Z,47.80
2019-02-06T11:28:17.862Z,47.80
2019-02-06T11:31:38.540Z,46.30
2019-02-06T11:34:26.063Z,43.30
2019-02-06T11:37:21.118Z,43.70
2019-02-06T11:39:58.117Z,44.50
2019-02-06T11:43:24.722Z,45.50
2019-02-06T11:46:01.860Z,46.80
2019-02-06T11:48:56.284Z,48.40
2019-02-06T11:52:05.657Z,48.50
2019-02-06T11:55:23.135Z,49.10
2019-02-06T11:58:14.108Z,49.40
2019-02-06T12:01:12.408Z,49.40
2019-02-06T12:04:20.333Z,49.70
2019-02-06T12:06:52.213Z,49.50
2019-02-06T12:09:23.736Z,49.40
2019-02-06T12:12:39.554Z,49.00
2019-02-06T12:19:34.642Z,48.70
2019-02-06T12:22:49.765Z,48.20
2019-02-06T12:25:34.451Z,48.80
2019-02-06T12:28:54.936Z,48.70
2019-02-06T12:31:31.092Z,48.50
2019-02-06T12:34:16.350Z,48.70
2019-02-06T12:37:07.460Z,49.20
2019-02-06T12:39:36.300Z,48.60
2019-02-06T12:43:00.985Z,48.60
2019-02-06T12:45:58.086Z,48.90
2019-02-06T12:49:22.384Z,49.70
2019-02-06T12:56:04.629Z,51.30
2019-02-06T13:02:28.181Z,52.20
2019-02-06T13:05:14.277Z,52.40
2019-02-06T13:08:01.336Z,52.60
2019-02-06T13:10:37.581Z,52.50
2019-02-06T13:13:16.718Z,52.70
2019-02-06T13:16:02.608Z,52.60
2019-02-06T13:18:41.157Z,53.00
2019-02-06T13:21:37.936Z,52.80
2019-02-06T13:24:52.587Z,52.70
2019-02-06T13:27:55.144Z,52.70
2019-02-06T13:30:40.030Z,52.70
2019-02-06T13:33:52.940Z,52.80
2019-02-06T13:36:43.506Z,52.90
2019-02-06T13:39:53.034Z,53.30
2019-02-06T13:42:37.772Z,53.30
2019-02-06T13:46:09.423Z,53.10
2019-02-06T13:49:37.516Z,53.40
2019-02-06T13:56:05.671Z,54.10
2019-02-06T13:58:53.199Z,54.00
2019-02-06T14:01:40.512Z,53.50
2019-02-06T14:04:25.626Z,54.00
2019-02-06T14:08:15.719Z,53.90
2019-02-06T14:11:24.233Z,54.00
2019-02-06T14:15:43.394Z,54.30
2019-02-06T14:20:56.472Z,54.30
2019-02-06T14:24:53.804Z,54.00
2019-02-06T14:28:51.506Z,53.90
2019-02-06T14:32:28.139Z,54.00
2019-02-06T14:35:58.135Z,54.30
2019-02-06T14:39:19.901Z,54.50
2019-02-06T14:42:27.296Z,55.30
2019-02-06T14:46:12.636Z,54.80
2019-02-06T14:49:34.649Z,54.40
2019-02-06T14:53:26.007Z,54.40
2019-02-06T14:56:54.210Z,54.50
2019-02-06T15:00:59.174Z,54.30
2019-02-06T15:08:10.265Z,54.50
2019-02-06T15:12:01.310Z,55.00
2019-02-06T15:15:43.384Z,55.50
2019-02-06T15:19:29.792Z,55.70
2019-02-06T15:26:48.193Z,56.30
2019-02-06T15:51:34.173Z,57.20
2019-02-06T15:55:48.471Z,57.00
2019-02-06T16:15:14.152Z,58.00
2019-02-06T16:23:02.074Z,58.60
2019-02-06T16:31:06.718Z,58.70
2019-02-06T16:38:57.097Z,58.50
2019-02-06T16:46:47.719Z,58.30
2019-02-06T16:50:28.946Z,58.00
2019-02-06T17:22:30.272Z,59.20
2019-02-06T17:46:26.242Z,60.30
2019-02-06T17:50:54.185Z,60.60
2019-02-06T17:57:45.438Z,60.40
2019-02-06T18:20:12.900Z,59.40
2019-02-06T18:23:41.788Z,59.00
2019-02-06T18:26:58.727Z,59.00
2019-02-06T18:30:30.738Z,59.00
2019-02-06T18:34:02.822Z,59.00
2019-02-06T18:44:20.563Z,59.30
2019-02-06T18:51:32.139Z,59.40
2019-02-06T18:55:07.243Z,59.80
2019-02-06T19:01:41.972Z,60.40
2019-02-06T19:04:29.076Z,60.50
2019-02-06T19:07:34.370Z,60.90
2019-02-06T19:10:12.888Z,60.70
2019-02-06T19:12:56.293Z,61.20
2019-02-06T19:15:31.358Z,60.90
2019-02-06T19:18:02.594Z,61.00
2019-02-06T19:20:41.746Z,60.60
2019-02-06T19:23:26.630Z,60.50
2019-02-06T19:26:02.625Z,60.80
2019-02-06T19:29:01.102Z,60.70
2019-02-06T19:32:22.691Z,60.90
2019-02-06T19:36:11.516Z,60.60
2019-02-06T19:40:12.192Z,60.60
2019-02-06T19:47:38.742Z,60.60
2019-02-06T19:50:54.125Z,60.80
2019-02-06T19:53:39.164Z,60.70
2019-02-06T19:56:08.179Z,60.60
2019-02-06T19:58:50.077Z,60.00
2019-02-06T20:01:28.601Z,59.90
2019-02-06T20:04:08.634Z,60.20
2019-02-06T20:06:54.037Z,59.80
2019-02-06T20:09:30.434Z,59.60
2019-02-06T20:12:27.581Z,59.70
2019-02-06T20:15:04.650Z,59.40
2019-02-06T20:17:44.281Z,59.40
2019-02-06T20:20:29.030Z,59.90
2019-02-06T20:23:01.765Z,59.90
2019-02-06T20:25:34.744Z,60.00
2019-02-06T20:28:12.221Z,60.30
2019-02-06T20:30:48.313Z,59.90
2019-02-06T20:33:21.561Z,59.90
2019-02-06T20:36:17.359Z,59.80
2019-02-06T20:38:53.506Z,59.40
2019-02-06T20:41:28.280Z,59.60
2019-02-06T20:44:09.659Z,59.10
2019-02-06T20:47:05.326Z,58.90
2019-02-06T20:49:48.169Z,58.90
2019-02-06T20:52:23.564Z,59.10
2019-02-06T20:54:58.519Z,59.00
2019-02-06T20:57:42.385Z,59.00
2019-02-06T21:00:40.519Z,58.90
2019-02-06T21:03:13.621Z,58.60
2019-02-06T21:06:19.080Z,58.50
2019-02-06T21:08:55.064Z,58.40
2019-02-06T21:11:29.052Z,58.20
2019-02-06T21:13:59.981Z,58.90
2019-02-06T21:16:34.965Z,58.10
2019-02-06T21:19:09.647Z,58.70
2019-02-06T21:21:43.498Z,58.50
2019-02-06T21:24:15.218Z,58.70
2019-02-06T21:26:51.130Z,58.80
2019-02-06T21:29:25.223Z,58.10
2019-02-06T21:32:00.728Z,58.40
2019-02-06T21:34:39.714Z,58.00
2019-02-06T21:37:18.101Z,57.60
2019-02-06T21:39:50.939Z,57.80
2019-02-06T21:42:21.717Z,57.60
2019-02-06T21:44:55.428Z,57.90
2019-02-06T21:47:35.006Z,57.50
2019-02-06T21:50:09.245Z,57.60
2019-02-06T21:52:40.100Z,57.30
2019-02-06T21:55:12.207Z,57.10
2019-02-06T21:57:46.776Z,57.10
2019-02-06T22:00:45.726Z,56.90
2019-02-06T22:03:23.217Z,57.20
2019-02-06T22:05:56.629Z,56.80
2019-02-06T22:08:35.101Z,57.00
2019-02-06T22:11:10.503Z,56.90
2019-02-06T22:14:10.974Z,57.10
2019-02-06T22:16:52.659Z,57.20
2019-02-06T22:19:41.462Z,56.90
2019-02-06T22:22:43.426Z,56.40
2019-02-06T22:25:24.308Z,56.10
2019-02-06T22:28:08.679Z,55.70
2019-02-06T22:30:42.825Z,55.60
2019-02-06T22:33:18.086Z,55.80
2019-02-06T22:35:50.891Z,55.50
2019-02-06T22:38:37.814Z,55.70
2019-02-06T22:41:17.871Z,55.80
2019-02-06T22:43:52.924Z,56.10
2019-02-06T22:46:38.661Z,56.30
2019-02-06T22:49:20.804Z,56.20
2019-02-06T22:51:59.580Z,56.10
2019-02-06T22:54:30.948Z,56.30
2019-02-06T22:57:10.083Z,56.50
2019-02-06T22:59:47.146Z,56.70
2019-02-06T23:02:34.627Z,56.80
2019-02-06T23:05:33.123Z,57.00
2019-02-06T23:08:22.109Z,57.20
2019-02-06T23:11:09.875Z,57.20
2019-02-06T23:13:44.018Z,57.40
2019-02-06T23:16:25.212Z,57.40
2019-02-06T23:19:00.845Z,57.80
2019-02-06T23:21:36.301Z,58.00
2019-02-06T23:24:17.570Z,58.00
2019-02-06T23:27:07.883Z,57.90
2019-02-06T23:29:45.038Z,57.90
2019-02-06T23:32:39.406Z,58.00
2019-02-06T23:35:11.348Z,58.20
2019-02-06T23:38:00.646Z,58.10
2019-02-06T23:41:06.932Z,58.00
2019-02-06T23:43:42.953Z,58.30
2019-02-06T23:46:31.468Z,58.30
2019-02-06T23:49:17.992Z,58.50
2019-02-06T23:52:05.337Z,58.30
2019-02-06T23:54:44.520Z,58.10
2019-02-06T23:57:24.515Z,58.30
2019-02-06T23:59:59.108Z,58.50
